createdAt,value
2022-11-08T00:00:13.192Z,8.90
2022-11-08T00:02:40.168Z,8.80
2022-11-08T00:05:25.931Z,8.80
2022-11-08T00:08:11.335Z,8.70
2022-11-08T00:10:56.752Z,8.60
2022-11-08T00:13:42.116Z,8.70
2022-11-08T00:16:08.913Z,8.60
2022-11-08T00:18:35.797Z,8.60
2022-11-08T00:21:03.557Z,8.50
2022-11-08T00:23:30.439Z,8.60
2022-11-08T00:25:57.517Z,8.60
2022-11-08T00:28:24.292Z,8.60
2022-11-08T00:30:51.062Z,8.60
2022-11-08T00:33:17.930Z,8.50
2022-11-08T00:35:44.733Z,8.50
2022-11-08T00:38:11.563Z,8.50
2022-11-08T00:40:38.543Z,8.50
2022-11-08T00:43:05.379Z,8.50
2022-11-08T00:45:32.163Z,8.50
2022-11-08T00:47:58.931Z,8.50
2022-11-08T00:50:25.679Z,8.40
2022-11-08T00:52:52.446Z,8.40
2022-11-08T00:55:19.198Z,8.40
2022-11-08T00:58:01.136Z,8.40
2022-11-08T01:00:28.312Z,8.40
2022-11-08T01:03:13.442Z,8.40
2022-11-08T01:05:40.484Z,8.30
2022-11-08T01:08:07.417Z,8.40
2022-11-08T01:10:35.243Z,8.40
2022-11-08T01:13:02.047Z,8.40
2022-11-08T01:15:28.965Z,8.40
2022-11-08T01:17:55.821Z,8.40
2022-11-08T01:20:22.632Z,8.40
2022-11-08T01:22:51.159Z,8.30
2022-11-08T01:25:18.024Z,8.20
2022-11-08T01:27:44.873Z,8.20
2022-11-08T01:30:12.086Z,8.10
2022-11-08T01:32:38.955Z,8.10
2022-11-08T01:35:06.638Z,8.10
2022-11-08T01:37:33.426Z,8.20
2022-11-08T01:40:00.331Z,8.20
2022-11-08T01:42:33.900Z,8.20
2022-11-08T01:45:03.479Z,8.30
2022-11-08T01:47:30.340Z,8.40
2022-11-08T01:50:09.291Z,8.40
2022-11-08T01:52:51.562Z,8.50
2022-11-08T01:55:36.815Z,8.50
2022-11-08T01:58:15.345Z,8.70
2022-11-08T02:00:42.445Z,8.60
2022-11-08T02:03:16.275Z,8.50
2022-11-08T02:05:43.212Z,8.50
2022-11-08T02:08:22.439Z,8.40
2022-11-08T02:10:52.791Z,8.30
2022-11-08T02:13:26.925Z,8.20
2022-11-08T02:15:53.787Z,8.20
2022-11-08T02:18:25.016Z,8.20
2022-11-08T02:21:13.490Z,8.20
2022-11-08T02:23:55.503Z,8.10
2022-11-08T02:26:31.802Z,8.10
2022-11-08T02:28:59.562Z,8.10
2022-11-08T02:31:26.316Z,7.90
2022-11-08T02:33:53.150Z,7.90
2022-11-08T02:36:23.082Z,7.90
2022-11-08T02:38:57.958Z,8.00
2022-11-08T02:41:24.728Z,7.90
2022-11-08T02:43:51.518Z,7.80
2022-11-08T02:46:18.589Z,7.70
2022-11-08T02:48:45.804Z,7.70
2022-11-08T02:51:12.598Z,7.60
2022-11-08T02:53:39.399Z,7.60
2022-11-08T02:56:06.359Z,7.60
2022-11-08T02:58:33.156Z,7.70
2022-11-08T03:00:59.965Z,7.70
2022-11-08T03:03:26.785Z,7.80
2022-11-08T03:05:53.590Z,7.80
2022-11-08T03:08:20.709Z,7.80
2022-11-08T03:10:47.955Z,7.80
2022-11-08T03:13:14.919Z,7.70
2022-11-08T03:15:41.767Z,7.70
2022-11-08T03:18:08.605Z,7.60
2022-11-08T03:20:35.356Z,7.50
2022-11-08T03:23:06.549Z,7.40
2022-11-08T03:25:34.676Z,7.50
2022-11-08T03:28:03.552Z,7.40
2022-11-08T03:30:32.415Z,7.50
2022-11-08T03:32:59.615Z,7.50
2022-11-08T03:35:26.443Z,7.50
2022-11-08T03:37:56.205Z,7.50
2022-11-08T03:40:24.745Z,7.60
2022-11-08T03:42:51.578Z,7.50
2022-11-08T03:45:18.701Z,7.50
2022-11-08T03:47:51.172Z,7.50
2022-11-08T03:50:18.088Z,7.50
2022-11-08T03:52:48.605Z,7.50
2022-11-08T03:55:18.392Z,7.50
2022-11-08T03:57:48.626Z,7.60
2022-11-08T04:00:18.662Z,7.30
2022-11-08T04:02:45.558Z,7.30
2022-11-08T04:05:14.061Z,7.30
2022-11-08T04:07:41.631Z,7.20
2022-11-08T04:10:10.989Z,7.20
2022-11-08T04:13:01.280Z,7.10
2022-11-08T04:15:30.719Z,7.00
2022-11-08T04:18:18.462Z,6.90
2022-11-08T04:21:06.893Z,6.80
2022-11-08T04:23:37.218Z,6.80
2022-11-08T04:26:11.530Z,6.70
2022-11-08T04:28:40.824Z,6.60
2022-11-08T04:31:14.317Z,6.60
2022-11-08T04:33:41.916Z,6.60
2022-11-08T04:36:15.737Z,6.60
2022-11-08T04:38:42.978Z,6.60
2022-11-08T04:41:16.728Z,6.70
2022-11-08T04:43:43.850Z,6.60
2022-11-08T04:46:20.165Z,6.70
2022-11-08T04:48:47.478Z,6.70
2022-11-08T04:51:26.785Z,6.70
2022-11-08T04:53:56.514Z,6.70
2022-11-08T04:56:24.624Z,6.70
2022-11-08T04:58:55.119Z,6.70
2022-11-08T05:01:25.378Z,6.70
2022-11-08T05:03:54.107Z,6.60
2022-11-08T05:06:27.940Z,6.60
2022-11-08T05:08:57.259Z,6.50
2022-11-08T05:11:27.541Z,6.50
2022-11-08T05:13:55.238Z,6.40
2022-11-08T05:16:26.535Z,6.30
2022-11-08T05:18:54.276Z,6.30
2022-11-08T05:21:55.277Z,6.20
2022-11-08T05:24:22.049Z,6.20
2022-11-08T05:26:49.215Z,5.90
2022-11-08T05:29:17.347Z,5.90
2022-11-08T05:31:44.378Z,5.90
2022-11-08T05:34:11.279Z,6.10
2022-11-08T05:36:38.160Z,6.00
2022-11-08T05:39:05.122Z,6.10
2022-11-08T05:41:31.949Z,6.00
2022-11-08T05:43:59.015Z,5.80
2022-11-08T05:46:26.064Z,5.90
2022-11-08T05:48:53.076Z,5.90
2022-11-08T05:51:20.519Z,6.00
2022-11-08T05:53:48.596Z,6.10
2022-11-08T05:56:16.515Z,6.10
2022-11-08T05:58:43.482Z,6.20
2022-11-08T06:01:14.390Z,6.20
2022-11-08T06:03:41.753Z,6.10
2022-11-08T06:06:16.110Z,6.10
2022-11-08T06:08:49.070Z,6.10
2022-11-08T06:11:24.138Z,6.00
2022-11-08T06:13:52.058Z,5.90
2022-11-08T06:16:21.006Z,6.00
2022-11-08T06:18:48.299Z,6.10
2022-11-08T06:21:19.268Z,6.10
2022-11-08T06:23:46.463Z,6.10
2022-11-08T06:26:13.533Z,6.20
2022-11-08T06:28:40.338Z,6.20
2022-11-08T06:31:07.239Z,6.30
2022-11-08T06:33:34.304Z,6.40
2022-11-08T06:36:01.242Z,6.50
2022-11-08T06:38:28.133Z,6.60
2022-11-08T06:40:54.950Z,6.70
2022-11-08T06:43:22.298Z,6.70
2022-11-08T06:45:49.377Z,6.80
2022-11-08T06:48:16.217Z,6.80
2022-11-08T06:50:43.794Z,6.90
2022-11-08T06:53:13.820Z,6.80
2022-11-08T06:55:41.108Z,6.80
2022-11-08T06:58:08.273Z,6.90
2022-11-08T07:00:35.213Z,6.80
2022-11-08T07:03:04.146Z,6.80
2022-11-08T07:05:34.201Z,6.80
2022-11-08T07:08:02.122Z,6.80
2022-11-08T07:10:32.082Z,6.90
2022-11-08T07:13:08.089Z,6.90
2022-11-08T07:15:36.215Z,7.10
2022-11-08T07:18:13.313Z,7.10
2022-11-08T07:20:41.203Z,7.20
2022-11-08T07:23:10.071Z,7.20
2022-11-08T07:25:37.253Z,7.30
2022-11-08T07:28:07.733Z,7.30
2022-11-08T07:30:35.952Z,7.40
2022-11-08T07:33:04.458Z,7.40
2022-11-08T07:35:31.375Z,7.50
2022-11-08T07:37:58.290Z,7.60
2022-11-08T07:40:25.262Z,7.50
2022-11-08T07:45:40.183Z,7.60
2022-11-08T07:48:12.442Z,7.60
2022-11-08T07:50:41.836Z,7.60
2022-11-08T07:53:09.568Z,7.70
2022-11-08T07:55:38.977Z,7.70
2022-11-08T07:58:06.649Z,7.80
2022-11-08T08:00:36.774Z,7.90
2022-11-08T08:03:06.748Z,8.10
2022-11-08T08:05:38.719Z,8.10
2022-11-08T08:08:06.582Z,8.10
2022-11-08T08:10:35.204Z,8.20
2022-11-08T08:13:03.690Z,8.20
2022-11-08T08:15:30.585Z,8.20
2022-11-08T08:18:02.286Z,8.30
2022-11-08T08:20:30.229Z,8.40
2022-11-08T08:22:57.273Z,8.60
2022-11-08T08:25:24.674Z,9.10
2022-11-08T08:27:55.138Z,9.70
2022-11-08T08:30:24.200Z,10.30
2022-11-08T08:33:08.375Z,11.10
2022-11-08T08:35:39.048Z,12.00
2022-11-08T08:38:07.042Z,12.90
2022-11-08T08:40:34.718Z,13.20
2022-11-08T08:43:04.908Z,12.70
2022-11-08T08:45:33.861Z,12.40
2022-11-08T08:48:01.561Z,12.60
2022-11-08T08:50:31.224Z,12.90
2022-11-08T08:53:04.791Z,13.10
2022-11-08T08:55:35.152Z,12.90
2022-11-08T08:58:01.933Z,12.80
2022-11-08T09:03:16.178Z,12.10
2022-11-08T09:05:44.357Z,11.70
2022-11-08T09:08:14.128Z,11.60
2022-11-08T09:10:41.348Z,11.30
2022-11-08T09:13:08.247Z,11.20
2022-11-08T09:15:35.112Z,11.30
2022-11-08T09:18:02.160Z,11.30
2022-11-08T09:20:28.990Z,11.40
2022-11-08T09:22:55.778Z,11.50
2022-11-08T09:25:22.622Z,11.50
2022-11-08T09:27:49.433Z,11.60
2022-11-08T09:30:16.216Z,11.70
2022-11-08T09:35:30.732Z,12.20
2022-11-08T09:37:58.324Z,12.40
2022-11-08T09:40:39.308Z,12.40
2022-11-08T09:43:46.404Z,12.50
2022-11-08T09:46:26.594Z,12.40
2022-11-08T09:48:55.729Z,12.40
2022-11-08T09:51:24.983Z,12.40
2022-11-08T09:54:04.687Z,12.30
2022-11-08T09:56:37.723Z,12.30
2022-11-08T09:59:41.230Z,12.20
2022-11-08T10:02:20.562Z,12.40
2022-11-08T10:05:12.929Z,12.60
2022-11-08T10:07:59.976Z,12.70
2022-11-08T10:10:57.927Z,12.70
2022-11-08T10:13:40.703Z,12.70
2022-11-08T10:16:16.438Z,12.60
2022-11-08T10:19:34.915Z,12.70
2022-11-08T10:22:20.513Z,12.70
2022-11-08T10:25:12.951Z,12.70
2022-11-08T10:27:43.306Z,12.70
2022-11-08T10:30:25.070Z,12.80
2022-11-08T10:32:56.628Z,12.80
2022-11-08T10:35:40.221Z,12.90
2022-11-08T10:38:31.332Z,12.90
2022-11-08T10:41:18.503Z,13.00
2022-11-08T10:43:53.443Z,13.00
2022-11-08T10:46:45.358Z,13.10
2022-11-08T10:49:26.190Z,13.10
2022-11-08T10:51:57.141Z,13.00
2022-11-08T10:54:55.276Z,13.00
2022-11-08T10:57:45.039Z,13.00
2022-11-08T11:00:21.057Z,12.90
2022-11-08T11:03:22.394Z,13.00
2022-11-08T11:06:05.882Z,12.90
2022-11-08T11:08:33.882Z,12.80
2022-11-08T11:11:38.069Z,12.80
2022-11-08T11:14:09.997Z,12.80
2022-11-08T11:16:47.550Z,12.80
2022-11-08T11:19:15.530Z,12.90
2022-11-08T11:21:44.615Z,12.80
2022-11-08T11:24:19.510Z,12.70
2022-11-08T11:27:18.146Z,12.80
2022-11-08T11:29:44.945Z,12.80
2022-11-08T11:32:53.721Z,12.80
2022-11-08T11:35:21.629Z,12.80
2022-11-08T11:37:49.318Z,12.70
2022-11-08T11:40:33.898Z,12.80
2022-11-08T11:43:29.696Z,12.70
2022-11-08T11:46:11.806Z,12.80
2022-11-08T11:48:55.850Z,12.80
2022-11-08T11:51:28.313Z,12.80
2022-11-08T11:53:56.827Z,12.80
2022-11-08T12:05:22.843Z,12.50
2022-11-08T12:08:33.070Z,12.60
2022-11-08T12:11:46.663Z,12.60
2022-11-08T12:14:38.015Z,12.60
2022-11-08T12:17:45.287Z,12.70
2022-11-08T12:20:30.214Z,12.80
2022-11-08T12:23:32.288Z,12.90
2022-11-08T12:26:15.375Z,12.90
2022-11-08T12:28:50.910Z,12.90
2022-11-08T12:31:34.037Z,13.00
2022-11-08T12:34:17.618Z,13.10
2022-11-08T12:37:03.605Z,13.20
2022-11-08T12:39:36.595Z,13.20
2022-11-08T12:42:34.651Z,13.30
2022-11-08T12:45:16.330Z,13.30
2022-11-08T12:47:59.506Z,13.30
2022-11-08T12:51:31.212Z,13.40
2022-11-08T12:54:22.928Z,13.50
2022-11-08T12:56:54.062Z,13.50
2022-11-08T12:59:39.693Z,13.60
2022-11-08T13:02:26.035Z,13.50
2022-11-08T13:05:31.486Z,13.50
2022-11-08T13:08:26.697Z,13.50
2022-11-08T13:11:00.506Z,13.50
2022-11-08T13:13:53.891Z,13.50
2022-11-08T13:16:36.115Z,13.50
2022-11-08T13:19:05.813Z,13.50
2022-11-08T13:21:41.094Z,13.50
2022-11-08T13:24:37.999Z,13.50
2022-11-08T13:27:33.978Z,13.60
2022-11-08T13:30:24.071Z,13.50
2022-11-08T13:33:12.387Z,13.50
2022-11-08T13:35:52.723Z,13.50
2022-11-08T13:38:50.059Z,13.50
2022-11-08T13:41:25.821Z,13.40
2022-11-08T13:43:56.538Z,13.40
2022-11-08T13:46:25.712Z,13.30
2022-11-08T13:48:58.792Z,13.30
2022-11-08T13:51:30.116Z,13.30
2022-11-08T13:54:26.202Z,13.40
2022-11-08T13:56:55.997Z,13.50
2022-11-08T13:59:32.122Z,13.60
2022-11-08T14:01:59.329Z,13.60
2022-11-08T14:04:41.127Z,13.60
2022-11-08T14:07:25.408Z,13.60
2022-11-08T14:10:32.171Z,13.60
2022-11-08T14:13:04.674Z,13.60
2022-11-08T14:15:55.489Z,13.50
2022-11-08T14:18:35.134Z,13.50
2022-11-08T14:21:05.795Z,13.50
2022-11-08T14:23:40.447Z,13.40
2022-11-08T14:26:22.000Z,13.30
2022-11-08T14:28:51.153Z,13.30
2022-11-08T14:31:34.388Z,13.20
2022-11-08T14:34:02.170Z,13.30
2022-11-08T14:36:32.313Z,13.00
2022-11-08T14:39:16.905Z,13.00
2022-11-08T14:41:55.653Z,12.90
2022-11-08T14:44:24.653Z,12.90
2022-11-08T14:46:53.035Z,12.90
2022-11-08T14:49:31.221Z,12.80
2022-11-08T14:52:25.836Z,12.80
2022-11-08T14:55:11.959Z,12.80
2022-11-08T14:57:46.886Z,12.80
2022-11-08T15:00:19.125Z,12.70
2022-11-08T15:03:03.462Z,12.70
2022-11-08T15:05:57.745Z,12.70
2022-11-08T15:08:36.429Z,12.60
2022-11-08T15:11:09.125Z,12.70
2022-11-08T15:13:50.832Z,12.50
2022-11-08T15:16:18.352Z,12.50
2022-11-08T15:18:45.403Z,12.40
2022-11-08T15:21:12.142Z,12.40
2022-11-08T15:23:53.567Z,12.40
2022-11-08T15:26:34.210Z,12.40
2022-11-08T15:29:14.207Z,12.30
2022-11-08T15:31:57.051Z,12.40
2022-11-08T15:34:39.306Z,12.40
2022-11-08T15:37:44.262Z,12.30
2022-11-08T15:40:28.180Z,12.30
2022-11-08T15:42:55.220Z,12.30
2022-11-08T15:45:32.341Z,12.20
2022-11-08T15:48:21.617Z,12.20
2022-11-08T15:50:49.080Z,12.20
2022-11-08T15:53:16.690Z,12.30
2022-11-08T15:56:04.717Z,12.20
2022-11-08T15:58:39.618Z,12.20
2022-11-08T16:01:06.964Z,12.20
2022-11-08T16:03:34.771Z,12.20
2022-11-08T16:06:01.783Z,12.30
2022-11-08T16:08:28.787Z,12.30
2022-11-08T16:11:00.427Z,12.30
2022-11-08T16:13:34.322Z,12.30
2022-11-08T16:16:04.353Z,12.20
2022-11-08T16:18:34.142Z,12.20
2022-11-08T16:21:01.507Z,12.20
2022-11-08T16:23:28.438Z,12.20
2022-11-08T16:25:57.493Z,12.10
2022-11-08T16:28:37.884Z,12.10
2022-11-08T16:31:14.965Z,12.10
2022-11-08T16:33:44.721Z,12.10
2022-11-08T16:36:24.082Z,12.20
2022-11-08T16:38:52.800Z,12.10
2022-11-08T16:41:20.990Z,12.10
2022-11-08T16:43:48.083Z,12.10
2022-11-08T16:46:16.457Z,12.00
2022-11-08T16:48:51.417Z,12.10
2022-11-08T16:51:21.254Z,12.10
2022-11-08T16:53:49.401Z,12.10
2022-11-08T16:56:16.433Z,12.10
2022-11-08T16:58:44.435Z,12.10
2022-11-08T17:01:20.955Z,12.10
2022-11-08T17:03:47.966Z,12.10
2022-11-08T17:06:18.390Z,12.20
2022-11-08T17:08:48.351Z,12.10
2022-11-08T17:11:23.459Z,12.20
2022-11-08T17:13:52.475Z,12.20
2022-11-08T17:16:20.054Z,12.20
2022-11-08T17:18:52.541Z,12.30
2022-11-08T17:21:43.795Z,12.20
2022-11-08T17:24:07.993Z,12.20
2022-11-08T17:26:34.890Z,12.20
2022-11-08T17:29:01.646Z,12.20
2022-11-08T17:31:28.422Z,12.20
2022-11-08T17:33:55.910Z,12.30
2022-11-08T17:36:23.080Z,12.30
2022-11-08T17:38:50.087Z,12.20
2022-11-08T17:41:17.549Z,12.20
2022-11-08T17:43:44.678Z,12.10
2022-11-08T17:46:12.477Z,12.10
2022-11-08T17:48:40.447Z,12.20
2022-11-08T17:51:08.121Z,12.10
2022-11-08T17:53:35.460Z,12.20
2022-11-08T17:56:05.428Z,12.20
2022-11-08T17:58:33.981Z,12.20
2022-11-08T18:01:05.209Z,12.20
2022-11-08T18:03:33.242Z,12.20
2022-11-08T18:06:11.431Z,12.20
2022-11-08T18:08:39.127Z,12.00
2022-11-08T18:11:06.394Z,11.90
2022-11-08T18:13:35.160Z,11.90
2022-11-08T18:16:11.846Z,11.90
2022-11-08T18:18:39.457Z,11.80
2022-11-08T18:21:08.111Z,11.90
2022-11-08T18:23:35.112Z,11.90
2022-11-08T18:26:02.181Z,12.00
2022-11-08T18:28:29.367Z,12.00
2022-11-08T18:30:56.222Z,12.00
2022-11-08T18:33:23.252Z,12.00
2022-11-08T18:35:50.043Z,12.00
2022-11-08T18:38:16.870Z,12.10
2022-11-08T18:40:45.635Z,12.00
2022-11-08T18:43:12.395Z,12.00
2022-11-08T18:45:39.242Z,12.00
2022-11-08T18:48:06.472Z,12.00
2022-11-08T18:50:33.336Z,12.00
2022-11-08T18:53:03.785Z,12.10
2022-11-08T18:55:31.786Z,12.20
2022-11-08T18:58:01.456Z,12.10
2022-11-08T19:00:28.268Z,12.10
2022-11-08T19:02:55.151Z,12.10
2022-11-08T19:05:22.010Z,12.10
2022-11-08T19:07:48.906Z,12.10
2022-11-08T19:10:15.844Z,12.10
2022-11-08T19:12:42.634Z,12.10
2022-11-08T19:15:09.681Z,12.20
2022-11-08T19:17:36.631Z,12.10
2022-11-08T19:20:04.792Z,12.20
2022-11-08T19:22:31.542Z,12.10
2022-11-08T19:24:58.355Z,12.10
2022-11-08T19:27:25.275Z,12.10
2022-11-08T19:29:52.104Z,12.00
2022-11-08T19:32:18.916Z,12.00
2022-11-08T19:34:47.029Z,12.00
2022-11-08T19:37:13.864Z,12.00
2022-11-08T19:39:40.730Z,12.00
2022-11-08T19:42:07.541Z,12.00
2022-11-08T19:44:34.341Z,12.00
2022-11-08T19:47:01.298Z,12.10
2022-11-08T19:49:28.730Z,12.10
2022-11-08T19:51:55.685Z,12.00
2022-11-08T19:54:22.569Z,12.00
2022-11-08T19:57:04.139Z,12.10
2022-11-08T19:59:31.934Z,12.20
2022-11-08T20:01:59.885Z,12.10
2022-11-08T20:04:27.002Z,12.10
2022-11-08T20:06:53.940Z,12.20
2022-11-08T20:09:23.548Z,12.30
2022-11-08T20:11:54.844Z,12.20
2022-11-08T20:14:21.807Z,12.20
2022-11-08T20:16:53.185Z,12.30
2022-11-08T20:19:20.616Z,12.20
2022-11-08T20:21:47.793Z,12.20
2022-11-08T20:24:15.769Z,12.10
2022-11-08T20:26:43.537Z,12.10
2022-11-08T20:29:11.033Z,12.10
2022-11-08T20:31:39.106Z,12.10
2022-11-08T20:34:09.824Z,12.20
2022-11-08T20:36:37.730Z,12.20
2022-11-08T20:39:07.748Z,12.20
2022-11-08T20:41:37.479Z,12.20
2022-11-08T20:44:06.249Z,12.20
2022-11-08T20:46:34.143Z,12.00
2022-11-08T20:49:01.747Z,12.00
2022-11-08T20:51:30.666Z,12.00
2022-11-08T20:54:00.121Z,12.00
2022-11-08T20:56:28.105Z,12.00
2022-11-08T20:58:55.026Z,12.10
2022-11-08T21:01:27.345Z,12.20
2022-11-08T21:03:55.125Z,12.10
2022-11-08T21:06:24.790Z,12.10
2022-11-08T21:09:05.584Z,12.00
2022-11-08T21:11:35.500Z,11.90
2022-11-08T21:14:04.800Z,11.80
2022-11-08T21:16:46.887Z,11.60
2022-11-08T21:19:20.116Z,11.60
2022-11-08T21:21:53.878Z,11.50
2022-11-08T21:24:21.267Z,11.50
2022-11-08T21:26:48.078Z,11.40
2022-11-08T21:29:14.920Z,11.50
2022-11-08T21:31:41.710Z,11.50
2022-11-08T21:34:08.995Z,11.50
2022-11-08T21:36:35.781Z,11.50
2022-11-08T21:39:02.577Z,11.50
2022-11-08T21:41:29.337Z,11.60
2022-11-08T21:43:56.100Z,11.40
2022-11-08T21:46:25.932Z,11.40
2022-11-08T21:48:56.298Z,11.30
2022-11-08T21:51:24.399Z,11.30
2022-11-08T21:53:55.298Z,11.30
2022-11-08T21:56:25.365Z,11.20
2022-11-08T21:58:52.907Z,11.20
2022-11-08T22:01:23.256Z,11.20
2022-11-08T22:03:51.027Z,11.10
2022-11-08T22:06:18.000Z,11.10
2022-11-08T22:08:44.795Z,11.10
2022-11-08T22:11:11.574Z,11.00
2022-11-08T22:13:38.503Z,11.00
2022-11-08T22:16:05.918Z,11.00
2022-11-08T22:21:38.013Z,11.00
2022-11-08T22:24:14.996Z,11.00
2022-11-08T22:26:42.070Z,11.00
2022-11-08T22:29:09.608Z,11.00
2022-11-08T22:31:37.095Z,11.00
2022-11-08T22:34:05.636Z,11.00
2022-11-08T22:36:32.604Z,11.00
2022-11-08T22:38:59.498Z,11.00
2022-11-08T22:41:27.133Z,11.00
2022-11-08T22:43:54.523Z,11.00
2022-11-08T22:46:22.064Z,11.00
2022-11-08T22:48:49.572Z,11.00
2022-11-08T22:51:16.971Z,11.10
2022-11-08T22:53:43.914Z,11.00
2022-11-08T22:56:12.012Z,11.00
2022-11-08T22:58:39.479Z,11.10
2022-11-08T23:01:12.450Z,11.10
2022-11-08T23:03:39.565Z,11.10
2022-11-08T23:06:06.859Z,11.10
2022-11-08T23:08:33.666Z,11.10
2022-11-08T23:11:20.506Z,11.10
2022-11-08T23:14:06.372Z,11.10
2022-11-08T23:16:35.938Z,11.20
2022-11-08T23:19:43.076Z,11.20
2022-11-08T23:22:45.892Z,11.20
2022-11-08T23:25:12.705Z,11.20
2022-11-08T23:27:58.097Z,11.30
2022-11-08T23:30:43.580Z,11.30
2022-11-08T23:33:10.433Z,11.20
2022-11-08T23:35:37.450Z,11.20
2022-11-08T23:38:04.246Z,11.30
2022-11-08T23:40:49.488Z,11.30
2022-11-08T23:43:38.999Z,11.30
2022-11-08T23:46:12.860Z,11.30
2022-11-08T23:48:40.791Z,11.30
2022-11-08T23:51:08.333Z,11.30
2022-11-08T23:53:37.153Z,11.30
2022-11-08T23:56:04.964Z,11.30
2022-11-08T23:58:32.694Z,11.30
